createdAt,value
2023-09-23T00:00:04.656Z,8.27
2023-09-23T00:02:41.830Z,10.20
2023-09-23T00:05:11.083Z,10.68
2023-09-23T00:07:38.470Z,9.45
2023-09-23T00:10:09.881Z,9.20
2023-09-23T00:12:37.692Z,7.32
2023-09-23T00:15:09.037Z,8.50
2023-09-23T00:17:37.517Z,7.93
2023-09-23T00:20:10.679Z,8.52
2023-09-23T00:22:42.022Z,8.73
2023-09-23T00:25:10.495Z,8.60
2023-09-23T00:27:38.405Z,8.23
2023-09-23T00:30:06.792Z,8.15
2023-09-23T00:32:34.240Z,8.23
2023-09-23T00:35:02.016Z,8.15
2023-09-23T00:37:32.068Z,8.43
2023-09-23T00:39:59.115Z,7.82
2023-09-23T00:42:26.753Z,7.15
2023-09-23T00:44:53.816Z,7.13
2023-09-23T00:47:23.893Z,8.15
2023-09-23T00:49:51.062Z,8.27
2023-09-23T00:52:19.425Z,8.95
2023-09-23T00:54:51.355Z,8.20
2023-09-23T00:57:19.037Z,8.23
2023-09-23T00:59:46.294Z,7.97
2023-09-23T01:02:15.552Z,8.13
2023-09-23T01:04:43.135Z,7.38
2023-09-23T01:07:10.946Z,7.50
2023-09-23T01:09:38.856Z,8.38
2023-09-23T01:12:06.489Z,7.85
2023-09-23T01:14:33.630Z,7.95
2023-09-23T01:17:03.273Z,7.80
2023-09-23T01:19:30.527Z,7.78
2023-09-23T01:21:58.216Z,7.45
2023-09-23T01:24:26.943Z,6.80
2023-09-23T01:26:54.254Z,6.70
2023-09-23T01:29:24.077Z,7.55
2023-09-23T01:32:36.787Z,7.88
2023-09-23T01:35:05.453Z,6.72
2023-09-23T01:37:32.946Z,7.53
2023-09-23T01:40:00.301Z,7.20
2023-09-23T01:42:27.868Z,7.40
2023-09-23T01:44:55.954Z,7.80
2023-09-23T01:47:23.308Z,8.88
2023-09-23T01:49:51.227Z,7.47
2023-09-23T01:52:18.835Z,10.20
2023-09-23T01:54:47.602Z,19.88
2023-09-23T01:57:18.382Z,20.17
2023-09-23T01:59:46.050Z,28.52
2023-09-23T02:02:13.607Z,18.98
2023-09-23T02:04:41.695Z,16.75
2023-09-23T02:07:09.559Z,18.92
2023-09-23T02:09:38.572Z,22.23
2023-09-23T02:12:06.003Z,15.82
2023-09-23T02:14:35.165Z,17.58
2023-09-23T02:17:02.453Z,20.67
2023-09-23T02:19:30.213Z,19.77
2023-09-23T02:21:57.539Z,18.45
2023-09-23T02:24:25.191Z,23.45
2023-09-23T02:26:52.929Z,14.07
2023-09-23T02:29:20.357Z,9.48
2023-09-23T02:31:50.910Z,7.75
2023-09-23T02:34:19.765Z,7.90
2023-09-23T02:36:47.034Z,7.70
2023-09-23T02:39:19.001Z,7.63
2023-09-23T02:41:47.147Z,6.97
2023-09-23T02:44:16.339Z,7.43
2023-09-23T02:46:44.509Z,7.05
2023-09-23T02:49:11.664Z,7.70
2023-09-23T02:51:39.855Z,7.43
2023-09-23T02:54:07.282Z,7.18
2023-09-23T02:56:37.685Z,7.53
2023-09-23T02:59:15.449Z,8.00
2023-09-23T03:01:48.277Z,7.93
2023-09-23T03:04:21.260Z,7.43
2023-09-23T03:06:57.351Z,7.18
2023-09-23T03:09:27.617Z,7.55
2023-09-23T03:11:59.103Z,8.10
2023-09-23T03:14:38.942Z,7.40
2023-09-23T03:17:08.954Z,8.43
2023-09-23T03:19:37.413Z,9.77
2023-09-23T03:22:09.452Z,9.48
2023-09-23T03:24:36.962Z,8.13
2023-09-23T03:27:04.309Z,8.48
2023-09-23T03:29:32.520Z,9.27
2023-09-23T03:32:01.175Z,10.00
2023-09-23T03:34:29.161Z,9.23
2023-09-23T03:36:56.411Z,9.05
2023-09-23T03:39:24.007Z,8.82
2023-09-23T03:41:51.565Z,8.73
2023-09-23T03:44:19.123Z,7.47
2023-09-23T03:46:51.792Z,9.75
2023-09-23T03:49:20.014Z,8.63
2023-09-23T03:51:47.097Z,8.48
2023-09-23T03:54:14.677Z,9.20
2023-09-23T03:56:42.331Z,8.63
2023-09-23T03:59:10.264Z,8.45
2023-09-23T04:01:41.216Z,9.43
2023-09-23T04:04:12.778Z,8.20
2023-09-23T04:06:40.185Z,9.13
2023-09-23T04:09:08.911Z,8.25
2023-09-23T04:11:37.065Z,9.23
2023-09-23T04:14:04.334Z,9.00
2023-09-23T04:16:32.110Z,10.10
2023-09-23T04:18:59.482Z,10.68
2023-09-23T04:21:27.388Z,9.20
2023-09-23T04:23:54.468Z,9.40
2023-09-23T04:26:23.426Z,9.02
2023-09-23T04:28:53.644Z,9.65
2023-09-23T04:31:25.651Z,8.90
2023-09-23T04:33:53.479Z,10.45
2023-09-23T04:36:22.896Z,10.10
2023-09-23T04:38:50.679Z,9.30
2023-09-23T04:41:18.081Z,9.48
2023-09-23T04:43:45.714Z,11.80
2023-09-23T04:46:16.610Z,10.95
2023-09-23T04:48:44.801Z,9.57
2023-09-23T04:51:12.139Z,9.35
2023-09-23T04:53:39.746Z,9.68
2023-09-23T04:56:18.387Z,10.85
2023-09-23T04:58:46.453Z,10.27
2023-09-23T05:01:15.761Z,10.23
2023-09-23T05:03:43.915Z,10.48
2023-09-23T05:06:12.409Z,10.38
2023-09-23T05:08:39.925Z,10.43
2023-09-23T05:11:08.495Z,10.40
2023-09-23T05:13:38.810Z,9.85
2023-09-23T05:16:05.923Z,9.48
2023-09-23T05:18:34.250Z,10.13
2023-09-23T05:21:01.757Z,10.60
2023-09-23T05:23:30.288Z,10.95
2023-09-23T05:25:59.534Z,10.63
2023-09-23T05:28:28.539Z,10.52
2023-09-23T05:30:55.650Z,12.68
2023-09-23T05:33:23.186Z,11.80
2023-09-23T05:35:50.676Z,12.50
2023-09-23T05:38:18.067Z,13.00
2023-09-23T05:40:45.221Z,14.95
2023-09-23T05:43:13.204Z,16.60
2023-09-23T05:45:40.298Z,16.05
2023-09-23T05:48:07.995Z,16.17
2023-09-23T05:50:35.423Z,16.13
2023-09-23T05:53:03.484Z,20.30
2023-09-23T05:55:32.519Z,16.10
2023-09-23T05:57:59.895Z,15.07
2023-09-23T06:00:27.747Z,15.73
2023-09-23T06:02:55.200Z,16.75
2023-09-23T06:05:23.274Z,15.07
2023-09-23T06:07:51.332Z,16.27
2023-09-23T06:10:20.473Z,15.73
2023-09-23T06:12:48.005Z,15.63
2023-09-23T06:15:15.273Z,15.18
2023-09-23T06:17:42.969Z,15.57
2023-09-23T06:20:11.381Z,14.07
2023-09-23T06:22:38.947Z,12.20
2023-09-23T06:25:06.534Z,11.40
2023-09-23T06:27:34.180Z,10.93
2023-09-23T06:30:01.301Z,11.13
2023-09-23T06:32:29.205Z,10.80
2023-09-23T06:34:56.910Z,11.00
2023-09-23T06:37:25.048Z,11.23
2023-09-23T06:39:52.163Z,10.50
2023-09-23T06:42:19.668Z,10.25
2023-09-23T06:44:47.666Z,11.85
2023-09-23T06:47:15.156Z,12.38
2023-09-23T06:49:42.387Z,12.52
2023-09-23T06:52:11.759Z,12.15
2023-09-23T06:54:38.837Z,11.73
2023-09-23T06:57:06.781Z,13.35
2023-09-23T06:59:33.878Z,12.25
2023-09-23T07:02:01.268Z,12.07
2023-09-23T07:04:29.808Z,11.15
2023-09-23T07:06:57.256Z,12.30
2023-09-23T07:09:24.341Z,10.60
2023-09-23T07:11:52.067Z,11.23
2023-09-23T07:14:19.839Z,12.27
2023-09-23T07:16:47.557Z,12.25
2023-09-23T07:19:14.824Z,11.35
2023-09-23T07:21:42.360Z,12.23
2023-09-23T07:24:11.163Z,10.65
2023-09-23T07:26:41.218Z,12.70
2023-09-23T07:29:08.512Z,11.90
2023-09-23T07:31:36.134Z,13.77
2023-09-23T07:34:03.360Z,11.23
2023-09-23T07:36:34.080Z,14.13
2023-09-23T07:39:03.614Z,14.00
2023-09-23T07:41:31.140Z,15.38
2023-09-23T07:43:59.190Z,13.20
2023-09-23T07:46:26.429Z,14.15
2023-09-23T07:48:53.982Z,13.50
2023-09-23T07:51:21.264Z,10.93
2023-09-23T07:53:48.910Z,11.25
2023-09-23T07:56:16.383Z,11.80
2023-09-23T07:58:44.046Z,13.05
2023-09-23T08:01:11.129Z,12.25
2023-09-23T08:03:41.582Z,11.43
2023-09-23T08:06:09.128Z,22.75
2023-09-23T08:08:36.234Z,39.67
2023-09-23T08:11:04.445Z,39.92
2023-09-23T08:13:31.559Z,33.50
2023-09-23T08:16:00.209Z,31.42
2023-09-23T08:18:27.362Z,31.60
2023-09-23T08:21:00.792Z,30.45
2023-09-23T08:23:28.382Z,30.95
2023-09-23T08:25:57.519Z,28.50
2023-09-23T08:28:24.765Z,27.15
2023-09-23T08:30:55.353Z,26.73
2023-09-23T08:33:23.149Z,15.43
2023-09-23T08:35:50.312Z,14.65
2023-09-23T08:38:17.948Z,15.65
2023-09-23T08:40:46.368Z,17.17
2023-09-23T08:43:14.084Z,17.63
2023-09-23T08:45:45.236Z,11.10
2023-09-23T08:48:14.715Z,9.88
2023-09-23T08:50:48.150Z,12.30
2023-09-23T08:53:18.409Z,11.07
2023-09-23T08:55:46.352Z,10.60
2023-09-23T08:58:13.511Z,10.77
2023-09-23T09:00:47.403Z,13.25
2023-09-23T09:03:15.566Z,15.93
2023-09-23T09:05:44.312Z,14.30
2023-09-23T09:08:12.224Z,18.00
2023-09-23T09:10:39.549Z,17.27
2023-09-23T09:13:08.121Z,13.10
2023-09-23T09:15:37.000Z,11.98
2023-09-23T09:18:05.140Z,9.35
2023-09-23T09:20:33.282Z,11.32
2023-09-23T09:23:01.147Z,11.07
2023-09-23T09:25:28.280Z,11.25
2023-09-23T09:27:56.276Z,9.68
2023-09-23T09:30:23.364Z,8.40
2023-09-23T09:32:52.060Z,12.38
2023-09-23T09:35:19.658Z,9.95
2023-09-23T09:37:55.468Z,9.10
2023-09-23T09:40:26.442Z,8.10
2023-09-23T09:42:59.056Z,8.23
2023-09-23T09:45:28.321Z,7.70
2023-09-23T09:48:01.827Z,6.60
2023-09-23T09:50:30.241Z,8.60
2023-09-23T09:52:57.606Z,10.05
2023-09-23T09:55:27.080Z,9.57
2023-09-23T09:57:56.027Z,9.52
2023-09-23T10:00:29.928Z,9.70
2023-09-23T10:03:07.692Z,8.02
2023-09-23T10:05:52.055Z,8.70
2023-09-23T10:08:21.764Z,8.43
2023-09-23T10:10:50.139Z,7.57
2023-09-23T10:13:25.666Z,7.82
2023-09-23T10:16:06.923Z,7.90
2023-09-23T10:18:41.256Z,7.50
2023-09-23T10:21:09.922Z,9.68
2023-09-23T10:23:42.312Z,9.48
2023-09-23T10:26:20.252Z,8.13
2023-09-23T10:29:01.989Z,8.45
2023-09-23T10:31:32.354Z,7.97
2023-09-23T10:34:04.352Z,9.20
2023-09-23T10:36:31.618Z,9.70
2023-09-23T10:39:00.251Z,8.52
2023-09-23T10:41:36.637Z,9.43
2023-09-23T10:44:04.829Z,8.30
2023-09-23T10:46:33.824Z,7.70
2023-09-23T10:49:02.980Z,9.05
2023-09-23T10:51:30.243Z,6.93
2023-09-23T10:53:58.093Z,9.25
2023-09-23T10:56:26.658Z,8.73
2023-09-23T10:58:54.529Z,7.72
2023-09-23T11:01:25.732Z,10.00
2023-09-23T11:03:53.674Z,7.13
2023-09-23T11:06:20.948Z,8.23
2023-09-23T11:08:48.411Z,7.45
2023-09-23T11:11:15.759Z,8.27
2023-09-23T11:13:43.259Z,8.45
2023-09-23T11:16:12.077Z,7.63
2023-09-23T11:18:39.599Z,8.40
2023-09-23T11:21:08.364Z,9.00
2023-09-23T11:23:36.074Z,8.20
2023-09-23T11:26:03.757Z,8.40
2023-09-23T11:28:31.584Z,8.63
2023-09-23T11:30:59.219Z,8.70
2023-09-23T11:33:26.777Z,8.95
2023-09-23T11:35:56.006Z,8.65
2023-09-23T11:38:23.306Z,8.32
2023-09-23T11:40:50.566Z,9.45
2023-09-23T11:43:18.165Z,8.50
2023-09-23T11:45:46.106Z,8.50
2023-09-23T11:48:13.829Z,7.20
2023-09-23T11:50:41.246Z,8.38
2023-09-23T11:53:09.206Z,9.63
2023-09-23T11:55:36.496Z,8.93
2023-09-23T11:58:04.067Z,9.25
2023-09-23T12:00:31.628Z,7.15
2023-09-23T12:02:59.145Z,7.78
2023-09-23T12:05:31.430Z,7.57
2023-09-23T12:08:01.161Z,7.93
2023-09-23T12:10:31.159Z,7.82
2023-09-23T12:13:05.379Z,8.05
2023-09-23T12:15:33.774Z,9.23
2023-09-23T12:18:01.115Z,7.65
2023-09-23T12:20:30.478Z,9.07
2023-09-23T12:23:02.580Z,9.23
2023-09-23T12:25:30.084Z,8.77
2023-09-23T12:27:57.489Z,8.27
2023-09-23T12:30:24.854Z,8.40
2023-09-23T12:32:52.253Z,7.78
2023-09-23T12:35:20.512Z,8.38
2023-09-23T12:37:47.647Z,7.63
2023-09-23T12:40:15.535Z,7.88
2023-09-23T12:42:43.142Z,6.97
2023-09-23T12:45:13.241Z,7.93
2023-09-23T12:47:55.904Z,7.75
2023-09-23T12:50:25.905Z,8.57
2023-09-23T12:52:55.710Z,8.90
2023-09-23T12:55:23.455Z,7.53
2023-09-23T12:57:50.544Z,7.85
2023-09-23T13:00:18.461Z,8.05
2023-09-23T13:02:45.685Z,8.07
2023-09-23T13:05:13.962Z,9.02
2023-09-23T13:07:41.065Z,6.70
2023-09-23T13:10:12.721Z,8.40
2023-09-23T13:12:41.478Z,7.75
2023-09-23T13:15:09.456Z,6.75
2023-09-23T13:17:36.553Z,7.65
2023-09-23T13:20:04.577Z,7.93
2023-09-23T13:22:31.695Z,8.02
2023-09-23T13:24:58.805Z,8.02
2023-09-23T13:27:25.966Z,7.70
2023-09-23T13:29:53.086Z,6.72
2023-09-23T13:32:20.252Z,8.07
2023-09-23T13:34:47.460Z,7.65
2023-09-23T13:37:14.560Z,7.22
2023-09-23T13:39:41.652Z,8.02
2023-09-23T13:42:09.762Z,7.45
2023-09-23T13:44:37.182Z,7.78
2023-09-23T13:47:04.669Z,7.65
2023-09-23T13:49:32.208Z,7.65
2023-09-23T13:51:59.460Z,7.53
2023-09-23T13:54:26.708Z,8.93
2023-09-23T13:56:53.809Z,8.55
2023-09-23T13:59:21.053Z,7.90
2023-09-23T14:01:48.285Z,7.70
2023-09-23T14:04:15.447Z,8.10
2023-09-23T14:06:42.756Z,8.07
2023-09-23T14:09:11.230Z,9.70
2023-09-23T14:11:38.780Z,8.30
2023-09-23T14:14:06.298Z,9.05
2023-09-23T14:16:34.071Z,8.40
2023-09-23T14:19:01.324Z,8.80
2023-09-23T14:21:28.542Z,9.45
2023-09-23T14:23:55.720Z,8.10
2023-09-23T14:26:22.947Z,9.30
2023-09-23T14:28:50.045Z,9.55
2023-09-23T14:31:17.368Z,9.88
2023-09-23T14:33:44.586Z,10.63
2023-09-23T14:36:11.938Z,9.75
2023-09-23T14:38:39.396Z,10.07
2023-09-23T14:41:06.612Z,10.85
2023-09-23T14:43:34.181Z,10.93
2023-09-23T14:46:01.381Z,10.48
2023-09-23T14:48:29.223Z,9.55
2023-09-23T14:50:56.573Z,10.68
2023-09-23T14:53:23.707Z,10.20
2023-09-23T14:55:51.974Z,11.20
2023-09-23T14:58:19.083Z,11.02
2023-09-23T15:00:46.665Z,10.20
2023-09-23T15:03:14.038Z,9.45
2023-09-23T15:05:41.383Z,8.45
2023-09-23T15:08:08.541Z,9.35
2023-09-23T15:10:36.690Z,8.98
2023-09-23T15:13:04.040Z,9.43
2023-09-23T15:15:31.198Z,10.23
2023-09-23T15:17:58.444Z,10.85
2023-09-23T15:20:25.700Z,11.48
2023-09-23T15:22:52.867Z,11.90
2023-09-23T15:25:20.011Z,13.45
2023-09-23T15:27:47.228Z,11.27
2023-09-23T15:30:15.462Z,12.10
2023-09-23T15:32:42.675Z,11.18
2023-09-23T15:35:10.262Z,11.48
2023-09-23T15:37:37.455Z,10.48
2023-09-23T15:40:10.373Z,12.20
2023-09-23T15:42:37.756Z,12.73
2023-09-23T15:45:05.314Z,11.48
2023-09-23T15:47:32.466Z,12.32
2023-09-23T15:49:59.801Z,14.07
2023-09-23T15:52:26.932Z,13.15
2023-09-23T15:54:54.903Z,12.75
2023-09-23T15:57:21.993Z,11.02
2023-09-23T15:59:49.216Z,12.23
2023-09-23T16:02:16.382Z,12.63
2023-09-23T16:04:43.585Z,12.18
2023-09-23T16:07:10.691Z,13.25
2023-09-23T16:09:37.856Z,12.27
2023-09-23T16:12:06.495Z,12.57
2023-09-23T16:14:33.621Z,13.93
2023-09-23T16:17:01.031Z,13.98
2023-09-23T16:19:28.357Z,16.65
2023-09-23T16:21:57.159Z,16.17
2023-09-23T16:24:24.450Z,16.45
2023-09-23T16:26:51.554Z,16.13
2023-09-23T16:29:19.769Z,23.08
2023-09-23T16:31:46.912Z,25.25
2023-09-23T16:34:14.455Z,42.80
2023-09-23T16:36:42.604Z,21.35
2023-09-23T16:39:09.662Z,19.70
2023-09-23T16:41:36.753Z,18.77
2023-09-23T16:44:03.979Z,15.80
2023-09-23T16:46:32.356Z,16.30
2023-09-23T16:49:01.176Z,15.77
2023-09-23T16:51:28.437Z,17.67
2023-09-23T16:53:56.785Z,17.55
2023-09-23T16:56:24.005Z,17.90
2023-09-23T16:58:51.180Z,22.15
2023-09-23T17:01:18.488Z,22.70
2023-09-23T17:03:46.182Z,19.65
2023-09-23T17:06:13.660Z,18.60
2023-09-23T17:08:41.389Z,18.13
2023-09-23T17:11:09.388Z,18.75
2023-09-23T17:13:39.447Z,21.90
2023-09-23T17:16:07.341Z,22.23
2023-09-23T17:18:34.961Z,22.10
2023-09-23T17:21:02.795Z,21.52
2023-09-23T17:23:29.948Z,21.95
2023-09-23T17:25:57.903Z,22.58
2023-09-23T17:28:25.083Z,22.65
2023-09-23T17:30:52.816Z,23.50
2023-09-23T17:33:20.032Z,26.92
2023-09-23T17:35:56.690Z,38.60
2023-09-23T17:38:24.711Z,39.63
2023-09-23T17:40:52.202Z,37.40
2023-09-23T17:43:20.897Z,35.75
2023-09-23T17:45:47.971Z,28.23
2023-09-23T17:48:15.609Z,28.75
2023-09-23T17:50:42.979Z,24.40
2023-09-23T17:53:10.801Z,23.88
2023-09-23T17:55:38.336Z,24.45
2023-09-23T17:58:07.056Z,21.52
2023-09-23T18:00:35.405Z,17.50
2023-09-23T18:03:03.245Z,17.40
2023-09-23T18:05:30.456Z,17.92
2023-09-23T18:07:59.556Z,14.82
2023-09-23T18:10:26.973Z,12.80
2023-09-23T18:12:54.546Z,13.77
2023-09-23T18:15:22.419Z,14.20
2023-09-23T18:17:50.190Z,14.18
2023-09-23T18:20:18.410Z,15.73
2023-09-23T18:22:46.940Z,15.68
2023-09-23T18:25:14.194Z,16.27
2023-09-23T18:27:42.136Z,16.70
2023-09-23T18:30:10.453Z,15.00
2023-09-23T18:32:40.447Z,14.57
2023-09-23T18:35:09.032Z,13.90
2023-09-23T18:37:36.720Z,12.07
2023-09-23T18:40:04.177Z,12.50
2023-09-23T18:42:32.097Z,11.73
2023-09-23T18:44:59.277Z,11.02
2023-09-23T18:47:26.487Z,11.98
2023-09-23T18:49:53.732Z,10.55
2023-09-23T18:52:20.888Z,10.32
2023-09-23T18:54:48.066Z,8.82
2023-09-23T18:57:15.331Z,9.15
2023-09-23T18:59:42.636Z,9.98
2023-09-23T19:02:10.865Z,9.13
2023-09-23T19:04:38.136Z,10.27
2023-09-23T19:07:05.729Z,10.20
2023-09-23T19:09:33.509Z,9.25
2023-09-23T19:12:01.418Z,14.05
2023-09-23T19:14:28.496Z,15.88
2023-09-23T19:16:55.992Z,16.08
2023-09-23T19:19:24.469Z,16.13
2023-09-23T19:21:51.675Z,15.10
2023-09-23T19:24:18.787Z,15.30
2023-09-23T19:26:56.570Z,15.02
2023-09-23T19:29:25.091Z,15.05
2023-09-23T19:31:52.327Z,15.30
2023-09-23T19:34:19.366Z,15.95
2023-09-23T19:36:46.561Z,18.02
2023-09-23T19:39:15.798Z,19.20
2023-09-23T19:41:43.229Z,18.17
2023-09-23T19:44:10.660Z,17.63
2023-09-23T19:46:38.022Z,18.98
2023-09-23T19:49:05.162Z,18.67
2023-09-23T19:51:33.984Z,16.63
2023-09-23T19:54:01.570Z,15.10
2023-09-23T19:56:30.206Z,17.95
2023-09-23T19:58:57.942Z,19.23
2023-09-23T20:01:25.203Z,19.90
2023-09-23T20:03:53.675Z,18.38
2023-09-23T20:06:22.176Z,17.52
2023-09-23T20:08:49.976Z,17.17
2023-09-23T20:11:19.530Z,16.50
2023-09-23T20:13:48.028Z,18.48
2023-09-23T20:16:15.309Z,17.95
2023-09-23T20:18:43.022Z,18.10
2023-09-23T20:21:10.176Z,18.45
2023-09-23T20:23:37.715Z,16.38
2023-09-23T20:26:05.240Z,15.48
2023-09-23T20:28:34.196Z,15.40
2023-09-23T20:31:02.292Z,16.98
2023-09-23T20:33:33.716Z,17.60
2023-09-23T20:36:01.874Z,14.90
2023-09-23T20:38:29.190Z,14.90
2023-09-23T20:41:07.830Z,14.80
2023-09-23T20:43:37.708Z,15.20
2023-09-23T20:46:11.099Z,15.93
2023-09-23T20:48:38.973Z,14.85
2023-09-23T20:51:06.330Z,13.60
2023-09-23T20:53:35.922Z,14.27
2023-09-23T20:56:06.849Z,13.32
2023-09-23T20:58:36.605Z,13.20
2023-09-23T21:01:03.719Z,13.10
2023-09-23T21:03:31.905Z,14.35
2023-09-23T21:05:59.140Z,14.00
2023-09-23T21:08:27.447Z,14.52
2023-09-23T21:10:54.544Z,16.10
2023-09-23T21:13:22.007Z,14.85
2023-09-23T21:15:59.247Z,13.43
2023-09-23T21:18:26.737Z,15.02
2023-09-23T21:20:53.928Z,13.40
2023-09-23T21:23:21.945Z,13.93
2023-09-23T21:25:53.746Z,16.15
2023-09-23T21:28:21.493Z,15.43
2023-09-23T21:30:49.228Z,13.25
2023-09-23T21:33:17.436Z,10.27
2023-09-23T21:35:44.798Z,9.90
2023-09-23T21:38:12.299Z,13.48
2023-09-23T21:40:44.439Z,12.82
2023-09-23T21:43:11.808Z,12.65
2023-09-23T21:45:40.590Z,14.13
2023-09-23T21:48:09.354Z,12.95
2023-09-23T21:50:36.921Z,13.38
2023-09-23T21:53:04.681Z,14.13
2023-09-23T21:55:31.920Z,12.68
2023-09-23T21:58:00.168Z,10.55
2023-09-23T22:00:28.098Z,12.00
2023-09-23T22:03:01.274Z,13.43
2023-09-23T22:05:30.735Z,11.63
2023-09-23T22:08:05.268Z,14.00
2023-09-23T22:10:33.223Z,13.23
2023-09-23T22:13:01.672Z,12.52
2023-09-23T22:15:29.644Z,12.18
2023-09-23T22:17:59.220Z,12.25
2023-09-23T22:20:29.405Z,13.35
2023-09-23T22:22:58.024Z,12.55
2023-09-23T22:25:26.959Z,13.73
2023-09-23T22:27:55.584Z,13.05
2023-09-23T22:30:27.583Z,13.77
2023-09-23T22:32:57.350Z,14.20
2023-09-23T22:35:32.069Z,16.30
2023-09-23T22:38:00.760Z,15.50
2023-09-23T22:40:28.324Z,14.85
2023-09-23T22:43:00.088Z,13.77
2023-09-23T22:45:38.686Z,14.15
2023-09-23T22:48:09.186Z,14.57
2023-09-23T22:50:36.527Z,12.65
2023-09-23T22:53:06.283Z,12.60
2023-09-23T22:55:34.356Z,12.90
2023-09-23T22:58:01.780Z,11.02
2023-09-23T23:00:29.092Z,10.68
2023-09-23T23:02:58.532Z,11.98
2023-09-23T23:05:27.235Z,12.10
2023-09-23T23:07:56.841Z,11.23
2023-09-23T23:10:24.396Z,12.88
2023-09-23T23:12:52.432Z,13.38
2023-09-23T23:15:19.683Z,12.57
2023-09-23T23:17:48.684Z,13.25
2023-09-23T23:20:33.728Z,12.02
2023-09-23T23:23:01.659Z,13.30
2023-09-23T23:25:29.678Z,14.18
2023-09-23T23:27:57.199Z,12.38
2023-09-23T23:30:24.693Z,11.65
2023-09-23T23:32:53.546Z,10.73
2023-09-23T23:35:23.893Z,11.13
2023-09-23T23:37:52.817Z,13.65
2023-09-23T23:40:24.239Z,9.98
2023-09-23T23:42:52.242Z,9.55
2023-09-23T23:45:21.074Z,9.60
2023-09-23T23:47:54.193Z,10.68
2023-09-23T23:50:24.164Z,10.05
2023-09-23T23:52:52.264Z,11.20
2023-09-23T23:55:20.372Z,11.23
2023-09-23T23:57:48.638Z,10.63
